x

9449880 - Friday Harbor, Wa (frdw1) Weather Station

6:36 - Tue 22nd Aug 2017 All times are PDT. -7 hours from GMT.

  • Wind
    6mph, 7mph gusts
  • Sea Temp 52°f
  • Air Temp 59°f
  • Sea Pressure 1014.4mb
  • 9449880 - Friday Harbor, Wa
  • 9449880 - Friday Harbor, Wa

More Historic Weather Station data

Upgrade to MSW Pro to gain access to the past 30 days of data for over 8000 Wavebouys and Weather Stations around the globe.

Join

Comparision Forecast

View Surf forecast
   
mar. 08/22 6:36 6 7 mph 1014.4mb 52f 59f
6:30 6 7 mph 1014.4mb 52f 59f
6:24 6 7 mph 1014.5mb 52f 58f
6:18 3 5 mph 1014.5mb 52f 58f
6:12 2 5 mph 1014.5mb 52f 60f
6:06 3 5 mph 1014.6mb 52f 60f
6:00 5 6 mph 1014.6mb 52f 60f
5:36 5 8 mph 1014.8mb 52f 61f
5:30 9 13 mph 1014.8mb 52f 62f
5:24 6 8 mph 1014.8mb 52f 62f
5:18 6 8 mph 1014.9mb 52f 63f
5:12 7 9 mph 1014.9mb 52f 64f
5:06 7 10 mph 1015mb 52f 65f
5:00 6 8 mph 1015mb 52f 66f
4:36 8 11 mph 1015.2mb 52f 67f
4:30 9 11 mph 1015.3mb 52f 67f
4:24 9 11 mph 1015.3mb 52f 67f
4:18 10 11 mph 1015.4mb 52f 68f
4:12 10 11 mph 1015.4mb 52f 69f
4:06 7 8 mph 1015.4mb 52f 69f
4:00 3 6 mph 1015.5mb 52f 71f
3:36 3 6 mph 1015.6mb 52f 68f
3:30 3 5 mph 1015.6mb 52f 73f
3:24 3 6 mph 1015.6mb 52f 72f
3:18 5 9 mph 1015.7mb 52f 72f
3:12 8 10 mph 1015.8mb 52f 73f
3:06 10 13 mph 1015.8mb 52f 73f
3:00 8 11 mph 1015.9mb 53f 73f
2:36 13 14 mph 1015.9mb 53f 72f
2:30 11 13 mph 1015.9mb 53f 72f
2:24 10 13 mph 1015.9mb 53f 72f
2:18 9 11 mph 1015.9mb 53f 72f
2:12 9 11 mph 1015.9mb 53f 73f
2:06 9 11 mph 1015.9mb 53f 72f
2:00 8 10 mph 1015.9mb 53f 72f
1:36 8 9 mph 1015.9mb 53f 72f
1:30 8 9 mph 1015.9mb 53f 71f
1:24 7 8 mph 1016mb 53f 71f
1:18 5 8 mph 1016mb 53f 70f
1:12 6 8 mph 1016mb 53f 71f
1:06 6 9 mph 1016mb 53f 70f
1:00 8 10 mph 1016mb 53f 70f
12:36 3 5 mph 1016mb 53f 70f
12:30 6 8 mph 1016mb 53f 70f
12:24 7 8 mph 1016.1mb 53f 69f
12:18 7 8 mph 1016.1mb 53f 69f
12:12 6 8 mph 1016mb 53f 67f
12:06 5 6 mph 1016.1mb 53f 67f
12:00 5 6 mph 1016.1mb 53f 68f
11:36  -  1 mph 1016.1mb 53f 68f
11:30 1 2 mph 1016.1mb 53f 67f
11:24 2 3 mph 1016.1mb 53f 66f
11:18  -  2 mph 1016.1mb 53f 61f
11:12 2 3 mph 1016.2mb 53f 58f
11:06 3 3 mph 1016.2mb 53f 59f
11:00 3 5 mph 1016.2mb 53f 60f
10:36 3 3 mph 1016.2mb 53f 63f
10:30 3 3 mph 1016.3mb 53f 62f
10:24 3 3 mph 1016.2mb 53f 60f
10:18 3 5 mph 1016.2mb 53f 61f
10:12 5 5 mph 1016.2mb 53f 61f
10:06 3 5 mph 1016.2mb 52f 60f
10:00 3 3 mph 1016.2mb 52f 60f
9:36 1 2 mph 1016.1mb 52f 62f
9:30 2 2 mph 1016.1mb 52f 63f
9:24 2 3 mph 1016.1mb 52f 61f
9:18 2 2 mph 1016.2mb 52f 61f
9:12 2 2 mph 1016.2mb 52f 61f
9:06 1 2 mph 1016.3mb 52f 61f
9:00 1 3 mph 1016.2mb 52f 59f
8:36 3 3 mph 1016.3mb 52f 56f
8:30 2 3 mph 1016.4mb 52f 56f
8:24 2 3 mph 1016.4mb 52f 57f
8:18 2 2 mph 1016.4mb 52f 58f
8:12 2 2 mph 1016.3mb 52f 59f
8:06  -  2 mph 1016.3mb 52f 58f
8:00 2 2 mph 1016.4mb 52f 58f
7:36  -  2 mph 1016.4mb 52f 58f
7:30 2 3 mph 1016.4mb 52f 57f
7:24 2 2 mph 1016.3mb 52f 57f
7:18 2 3 mph 1016.3mb 52f 56f
7:12 1 2 mph 1016.1mb 52f 56f
7:06 1 2 mph 1016.1mb 52f 56f
7:00  -  1 mph 1016.1mb 52f 56f
6:36  -  0 mph 1016mb 52f 53f
6:30  -  0 mph 1016mb 52f 53f
6:24  -  0 mph 1015.9mb 52f 53f
6:18  -  0 mph 1015.9mb 52f 53f
6:12  -  0 mph 1015.8mb 52f 54f
6:06  -  0 mph 1015.9mb 52f 54f
6:00  -  0 mph 1015.9mb 52f 54f
5:36  -  1 mph 1015.7mb 52f 54f
5:30  -  1 mph 1015.6mb 52f 54f
5:24  -  2 mph 1015.6mb 52f 53f
5:18  -  2 mph 1015.6mb 52f 53f
5:12  -  2 mph 1015.6mb 52f 54f
5:06  -  0 mph 1015.5mb 52f 54f
5:00  -  0 mph 1015.5mb 52f 54f
4:36  -  2 mph 1015.5mb 52f 53f
4:30 2 2 mph 1015.5mb 52f 53f
4:24 1 2 mph 1015.5mb 52f 53f
4:18 1 2 mph 1015.5mb 52f 53f
4:12 2 3 mph 1015.5mb 52f 53f
4:06 3 3 mph 1015.6mb 52f 53f
4:00 2 3 mph 1015.5mb 52f 53f
3:36 1 1 mph 1015.7mb 52f 54f
3:30  -  1 mph 1015.8mb 52f 54f
3:24  -  0 mph 1015.8mb 52f 54f
3:18  -  1 mph 1015.8mb 52f 54f
3:12  -  1 mph 1015.8mb 52f 54f
3:06  -  2 mph 1015.8mb 52f 54f
3:00 2 2 mph 1015.8mb 52f 55f
2:36 2 3 mph 1015.8mb 52f 56f
2:30 2 3 mph 1015.8mb 52f 56f
2:24 3 3 mph 1015.8mb 52f 56f
2:18 2 2 mph 1015.8mb 52f 57f
2:12  -  2 mph 1015.8mb 52f 57f
2:06  -  1 mph 1015.8mb 52f 58f
2:00  -  1 mph 1015.8mb 52f 58f
1:36  -  2 mph 1015.9mb 52f 57f
1:30 1 2 mph 1015.9mb 52f 57f
1:24 1 2 mph 1016mb 52f 56f
1:18 1 2 mph 1016mb 52f 56f
1:12 2 2 mph 1016mb 52f 56f
1:06 1 2 mph 1016mb 52f 57f
1:00 1 2 mph 1016mb 52f 57f
12:36  -  0 mph 1016mb 52f 58f
12:30  -  1 mph 1016.1mb 52f 57f
12:24  -  2 mph 1016mb 52f 57f
12:18 2 2 mph 1016mb 53f 57f
12:12  -  1 mph 1016mb 53f 57f
12:06  -  1 mph 1016mb 53f 58f
12:00  -  0 mph 1016mb 53f 59f
lun. 08/21 11:36 1 2 mph 1016.3mb 53f 58f
11:30 1 2 mph 1016.3mb 53f 58f
11:24 2 2 mph 1016.3mb 53f 58f
11:18 1 2 mph 1016.3mb 53f 59f
11:12  -  1 mph 1016.3mb 53f 59f
11:06  -  1 mph 1016.3mb 53f 59f
11:00  -  0 mph 1016.4mb 53f 59f
10:36  -  0 mph 1016.4mb 53f 59f
10:30  -  0 mph 1016.4mb 53f 59f
10:24  -  0 mph 1016.4mb 53f 59f
10:18  -  0 mph 1016.4mb 52f 59f
10:12  -  0 mph 1016.4mb 52f 59f
10:06  -  0 mph 1016.4mb 52f 59f
10:00  -  0 mph 1016.4mb 53f 60f
9:36 2 3 mph 1016.5mb 52f 61f
9:30 1 2 mph 1016.5mb 52f 63f
9:24  -  0 mph 1016.5mb 52f 63f
9:18  -  1 mph 1016.5mb 52f 63f
9:12 2 5 mph 1016.5mb 52f 63f
9:06 1 3 mph 1016.5mb 52f 63f
9:00  -  2 mph 1016.5mb 52f 65f
8:36 3 5 mph 1016.5mb 52f 64f
8:30  -  2 mph 1016.5mb 52f 66f
8:24  -  2 mph 1016.5mb 52f 66f
8:18 1 3 mph 1016.5mb 52f 65f
8:12 2 3 mph 1016.5mb 52f 66f
8:06  -  2 mph 1016.4mb 52f 71f
8:00  -  3 mph 1016.4mb 52f 71f
7:36  -  1 mph 1016.6mb 52f 72f
7:30  -  2 mph 1016.6mb 52f 72f
7:24  -  5 mph 1016.5mb 52f 72f
7:18  -  2 mph 1016.5mb 52f 72f
7:12  -  2 mph 1016.6mb 52f 73f
7:06  -  3 mph 1016.7mb 52f 73f
7:00  -  2 mph 1016.7mb 52f 73f
6:54  -  2 mph 1016.8mb 52f 73f
6:48  -  2 mph 1016.8mb 52f 73f
6:36  -  2 mph 1016.8mb 52f 73f
6:30  -  3 mph 1016.9mb 52f 74f
6:24 1 5 mph 1016.9mb 52f 74f
6:18 1 5 mph 1017mb 52f 74f
6:12  -  2 mph 1017.1mb 52f 74f
6:06 1 5 mph 1017.1mb 52f 74f
6:00 2 3 mph 1017.2mb 52f 74f
5:54 1 5 mph 1017.2mb 52f 74f
5:48 1 6 mph 1017.3mb 52f 74f
5:36 2 6 mph 1017.3mb 52f 74f
5:30 3 5 mph 1017.3mb 52f 73f
5:24 3 5 mph 1017.4mb 52f 73f
5:18 3 6 mph 1017.5mb 52f 74f
5:12 3 6 mph 1017.5mb 52f 74f
5:06 3 6 mph 1017.5mb 52f 73f
5:00 3 6 mph 1017.6mb 52f 74f
4:54 3 6 mph 1017.7mb 52f 73f
4:48 2 5 mph 1017.8mb 52f 73f
4:36 2 5 mph 1018mb 52f 73f
4:30 2 8 mph 1018.1mb 52f 74f
4:24 2 6 mph 1018.1mb 52f 74f
4:18 1 9 mph 1018.3mb 52f 74f
4:12 3 8 mph 1018.3mb 52f 74f
4:06 5 7 mph 1018.3mb 52f 73f
4:00 5 8 mph 1018.4mb 52f 73f
3:54 2 7 mph 1018.5mb 52f 73f
3:48 3 7 mph 1018.6mb 52f 74f
3:36 3 9 mph 1018.7mb 52f 73f
3:30 5 9 mph 1018.8mb 52f 73f
3:24 5 9 mph 1018.9mb 52f 72f
3:18 2 7 mph 1018.9mb 52f 73f
3:12 2 6 mph 1018.9mb 52f 73f
3:06 3 7 mph 1019.1mb 52f 71f
3:00 2 7 mph 1019.3mb 52f 72f
2:54 3 7 mph 1019.3mb 52f 71f
2:48 1 5 mph 1019.3mb 52f 72f
2:36 2 6 mph 1019.5mb 52f 71f
2:30 2 6 mph 1019.5mb 53f 72f
2:24 3 7 mph 1019.5mb 53f 71f
2:18 5 10 mph 1019.6mb 53f 70f
2:12 2 6 mph 1019.6mb 53f 71f
2:06 2 6 mph 1019.7mb 53f 71f
2:00 3 9 mph 1019.7mb 53f 71f
1:54 3 8 mph 1019.7mb 53f 72f
1:48 3 8 mph 1019.7mb 53f 71f
1:36 6 10 mph 1019.8mb 53f 71f
1:30 6 10 mph 1019.9mb 53f 70f
1:24 3 8 mph 1019.9mb 53f 71f
1:18 5 8 mph 1020mb 53f 70f
1:12 6 8 mph 1020mb 53f 70f
1:06 6 8 mph 1020.1mb 53f 70f
1:00 6 8 mph 1020.2mb 53f 70f
12:54 6 8 mph 1020.2mb 53f 70f
12:48 7 10 mph 1020.2mb 53f 69f
12:36 7 9 mph 1020.3mb 53f 68f
12:30 7 8 mph 1020.3mb 53f 67f
12:24 7 8 mph 1020.4mb 53f 67f
12:18 7 9 mph 1020.4mb 53f 66f
12:12 7 9 mph 1020.5mb 53f 66f
12:06 7 9 mph 1020.5mb 53f 66f
12:00 1 3 mph 1020.6mb 53f 64f
11:54  -  2 mph 1020.6mb 53f 62f
11:48  -  3 mph 1020.7mb 53f 60f
11:36 2 2 mph 1020.7mb 53f 57f
11:30  -  1 mph 1020.7mb 53f 56f
11:24  -  2 mph 1020.7mb 53f 55f
11:18 1 2 mph 1020.7mb 53f 55f
11:12 2 3 mph 1020.7mb 53f 55f
11:06 3 3 mph 1020.7mb 53f 54f
11:00 3 5 mph 1020.7mb 53f 54f
10:54 2 3 mph 1020.6mb 53f 55f
10:36  -  2 mph 1020.6mb 53f 55f
10:30 1 3 mph 1020.6mb 53f 56f
10:24 2 3 mph 1020.6mb 53f 56f
10:18 2 3 mph 1020.6mb 53f 56f
10:12 2 2 mph 1020.7mb 53f 56f
10:06 2 3 mph 1020.8mb 53f 55f
10:00 3 3 mph 1020.8mb 53f 55f
9:54 3 3 mph 1020.7mb 53f 57f
9:48 2 3 mph 1020.7mb 53f 57f
9:36 3 3 mph 1020.8mb 52f 55f
9:30 2 2 mph 1020.9mb 52f 57f
9:24 3 3 mph 1020.9mb 52f 56f
9:18 2 3 mph 1020.9mb 52f 55f
9:12 3 3 mph 1020.8mb 52f 55f
9:06 3 5 mph 1020.8mb 52f 56f
9:00 3 3 mph 1020.9mb 52f 55f
8:54 2 3 mph 1020.9mb 52f 56f
8:48 2 3 mph 1021mb 52f 57f
8:36  -  1 mph 1021.1mb 52f 57f
8:30 1 2 mph 1021.1mb 52f 56f
8:24 2 2 mph 1021.1mb 52f 56f
8:18 1 2 mph 1021.1mb 52f 56f
8:12 1 2 mph 1021.1mb 52f 56f
8:06  -  1 mph 1021.1mb 52f 56f
8:00  -  1 mph 1021.1mb 52f 55f
7:54  -  2 mph 1021mb 52f 55f
7:48 2 2 mph 1021mb 52f 54f
7:36  -  1 mph 1020.9mb 52f 55f
7:30  -  0 mph 1020.9mb 52f 55f
7:24  -  1 mph 1020.9mb 52f 55f
7:18  -  0 mph 1020.9mb 52f 56f
7:12  -  1 mph 1020.9mb 52f 54f
7:06 1 1 mph 1020.8mb 52f 53f
7:00  -  0 mph 1020.9mb 52f 54f
6:54  -  2 mph 1020.8mb 52f 53f
6:48  -  2 mph 1020.9mb 52f 52f
6:36 1 2 mph 1020.8mb 52f 51f
6:30  -  1 mph 1020.7mb 52f 51f
6:24  -  0 mph 1020.6mb 52f 52f
6:18  -  0 mph 1020.6mb 52f 52f
6:12  -  1 mph 1020.6mb 52f 51f
6:06  -  1 mph 1020.6mb 52f 50f
6:00 1 2 mph 1020.5mb 52f 50f
5:54 1 2 mph 1020.4mb 52f 51f
5:48  -  1 mph 1020.5mb 52f 51f
5:36  -  0 mph 1020.5mb 52f 50f
5:30  -  0 mph 1020.5mb 52f 51f
5:24  -  0 mph 1020.5mb 52f 51f
5:18  -  0 mph 1020.5mb 52f 51f
5:12  -  0 mph 1020.4mb 52f 51f
5:06  -  0 mph 1020.4mb 52f 51f
5:00  -  2 mph 1020.3mb 52f 51f
4:54 1 2 mph 1020.3mb 52f 50f
4:48 2 3 mph 1020.3mb 52f 51f
4:36  -  1 mph 1020.3mb 52f 51f
4:30  -  1 mph 1020.2mb 52f 50f
4:24 1 2 mph 1020.3mb 52f 51f
4:18 1 2 mph 1020.3mb 52f 51f
4:12 2 2 mph 1020.3mb 52f 51f
4:06 2 2 mph 1020.3mb 52f 51f
4:00 2 3 mph 1020.3mb 52f 51f
3:54 2 3 mph 1020.3mb 52f 52f
3:48 1 2 mph 1020.3mb 52f 51f
3:36  -  1 mph 1020.4mb 52f 52f
3:30 1 2 mph 1020.4mb 52f 52f
3:24  -  2 mph 1020.4mb 52f 53f
3:18  -  2 mph 1020.3mb 52f 53f
3:12 1 3 mph 1020.3mb 52f 52f
3:06 2 5 mph 1020.4mb 52f 53f
3:00  -  2 mph 1020.3mb 52f 54f
2:54 1 1 mph 1020.3mb 52f 53f
2:48  -  1 mph 1020.3mb 52f 53f
2:36  -  1 mph 1020.3mb 52f 53f
2:30  -  1 mph 1020.3mb 52f 53f
2:24  -  1 mph 1020.3mb 52f 53f
2:18  -  1 mph 1020.3mb 52f 53f
2:12  -  1 mph 1020.4mb 52f 54f
2:06  -  1 mph 1020.4mb 52f 54f
2:00  -  1 mph 1020.3mb 52f 54f
1:54  -  1 mph 1020.3mb 52f 54f
1:48  -  2 mph 1020.3mb 52f 54f
1:36 1 2 mph 1020.3mb 52f 53f
1:30  -  1 mph 1020.3mb 52f 53f
1:24 2 2 mph 1020.3mb 52f 54f
1:18  -  1 mph 1020.3mb 52f 54f
1:12  -  1 mph 1020.3mb 52f 54f
1:06  -  1 mph 1020.3mb 52f 54f
1:00  -  0 mph 1020.3mb 52f 54f
12:54  -  1 mph 1020.4mb 53f 54f
12:48  -  1 mph 1020.4mb 53f 54f
12:36  -  1 mph 1020.4mb 53f 54f
12:30  -  1 mph 1020.4mb 53f 54f
12:24 1 2 mph 1020.4mb 53f 54f
12:18  -  1 mph 1020.4mb 53f 54f
12:12  -  1 mph 1020.4mb 53f 54f
12:06 1 3 mph 1020.4mb 53f 55f
12:00 2 3 mph 1020.3mb 53f 55f
dim. 08/20 11:54 1 3 mph 1020.3mb 53f 54f
11:48 1 2 mph 1020.2mb 53f 54f
11:36 1 3 mph 1020.1mb 53f 54f
11:30 1 2 mph 1020.1mb 53f 54f
11:24 2 3 mph 1020.1mb 53f 54f
11:18 2 3 mph 1020.1mb 53f 55f
11:12 1 2 mph 1020.1mb 53f 54f
11:06  -  1 mph 1020.1mb 53f 54f
11:00 1 1 mph 1020mb 53f 54f
10:54  -  0 mph 1020mb 53f 54f
10:48  -  1 mph 1020mb 53f 55f
10:36  -  0 mph 1020.1mb 53f 55f
10:30  -  1 mph 1020mb 53f 55f
10:24 1 1 mph 1020mb 53f 54f
10:18  -  0 mph 1020mb 53f 54f
10:12  -  0 mph 1020mb 53f 54f
10:06  -  1 mph 1019.9mb 53f 55f
10:00  -  0 mph 1020mb 53f 55f
9:54  -  1 mph 1020mb 53f 55f
9:48 1 2 mph 1020mb 52f 55f
9:36 2 5 mph 1020mb 52f 55f
9:30 1 2 mph 1020mb 52f 56f
9:24 2 5 mph 1019.9mb 52f 56f
9:18 5 6 mph 1019.9mb 52f 56f
9:12 3 5 mph 1019.9mb 52f 56f
9:06 3 5 mph 1019.9mb 52f 58f
9:00 2 5 mph 1019.9mb 52f 57f
8:54 1 2 mph 1019.9mb 52f 56f
8:48  -  1 mph 1019.8mb 52f 56f
8:36  -  2 mph 1019.7mb 52f 57f
8:30  -  1 mph 1019.6mb 52f 57f
8:24  -  0 mph 1019.6mb 52f 57f
8:18  -  2 mph 1019.5mb 52f 57f
8:12 2 2 mph 1019.4mb 52f 58f
8:06 1 3 mph 1019.4mb 52f 57f
8:00 3 5 mph 1019.4mb 52f 57f
7:54 2 3 mph 1019.3mb 52f 58f
7:48 2 3 mph 1019.3mb 52f 58f
7:36 1 3 mph 1019.3mb 52f 58f
7:30 1 3 mph 1019.3mb 52f 58f
7:24 1 2 mph 1019.2mb 52f 59f
7:18 1 1 mph 1019.2mb 52f 59f
7:12  -  1 mph 1019.2mb 52f 59f
7:06  -  2 mph 1019.2mb 52f 59f
7:00 2 2 mph 1019.2mb 52f 59f
6:54 2 2 mph 1019.3mb 52f 59f
6:48 2 2 mph 1019.2mb 52f 59f
6:36  -  1 mph 1019.3mb 52f 60f
6:30  -  1 mph 1019.3mb 52f 62f
6:24 1 2 mph 1019.3mb 52f 63f
6:18 1 3 mph 1019.3mb 52f 63f
6:12 3 3 mph 1019.4mb 52f 62f
6:06 3 3 mph 1019.4mb 52f 62f
6:00 3 5 mph 1019.5mb 52f 62f
5:54 6 7 mph 1019.4mb 52f 61f
5:48 7 8 mph 1019.4mb 52f 61f
5:36 6 6 mph 1019.3mb 52f 61f
5:30 5 7 mph 1019.3mb 52f 61f
5:24 6 7 mph 1019.3mb 52f 60f
5:18 6 8 mph 1019.3mb 52f 61f
5:12 7 8 mph 1019.3mb 52f 61f
5:06 8 8 mph 1019.4mb 52f 61f
5:00 7 8 mph 1019.5mb 52f 61f
4:54 5 6 mph 1019.5mb 52f 61f
4:48 2 3 mph 1019.8mb 52f 63f
4:30 5 6 mph 1020mb 52f 61f
4:24 3 6 mph 1020mb 52f 62f
4:18 3 6 mph 1020mb 52f 62f
4:12 5 7 mph 1020mb 52f 61f
4:06 5 7 mph 1019.9mb 52f 62f
4:00 7 8 mph 1019.9mb 52f 62f
3:54 5 7 mph 1019.9mb 52f 62f
3:48 7 8 mph 1019.9mb 52f 62f
3:36 6 8 mph 1020mb 52f 64f
3:30 6 8 mph 1020mb 52f 64f
3:24 5 8 mph 1020mb 52f 64f
3:18 3 6 mph 1020.1mb 52f 65f
3:12 5 7 mph 1020.2mb 52f 65f
3:06 5 9 mph 1020.2mb 52f 65f
3:00 5 7 mph 1020.3mb 52f 65f
2:54 7 9 mph 1020.3mb 52f 65f
2:48 7 9 mph 1020.3mb 52f 63f
2:36 6 8 mph 1020.3mb 52f 65f
2:30 6 7 mph 1020.4mb 52f 65f
2:24 6 7 mph 1020.5mb 52f 64f
2:18 6 6 mph 1020.6mb 52f 64f
2:12 6 7 mph 1020.7mb 52f 62f
2:06 6 7 mph 1020.7mb 52f 62f
2:00 6 7 mph 1020.8mb 52f 61f
1:54 7 9 mph 1020.8mb 52f 61f
1:48 8 9 mph 1020.8mb 52f 61f
1:36 3 5 mph 1020.8mb 52f 62f
1:30 2 3 mph 1020.8mb 52f 62f
1:24 1 3 mph 1020.9mb 53f 60f
1:18 3 5 mph 1021mb 53f 60f
1:12 3 6 mph 1021mb 53f 59f
1:06 3 6 mph 1021mb 53f 59f
1:00 5 6 mph 1021.1mb 53f 59f
12:54 3 6 mph 1021mb 53f 59f
12:36 3 5 mph 1021mb 53f 60f
12:30 3 5 mph 1021.1mb 53f 60f
12:24 1 2 mph 1021.1mb 53f 60f
12:18  -  1 mph 1021.1mb 53f 62f
12:12 1 3 mph 1021.1mb 53f 61f
12:06  -  1 mph 1021.2mb 53f 62f
12:00  -  2 mph 1021.2mb 53f 59f
11:54  -  3 mph 1021.1mb 53f 59f
11:48 5 7 mph 1021.1mb 53f 57f
11:36 6 6 mph 1021.2mb 53f 57f
11:30 6 6 mph 1021.2mb 53f 58f
11:24 6 7 mph 1021.2mb 53f 57f
11:18 5 6 mph 1021.3mb 53f 56f
11:12 3 5 mph 1021.2mb 53f 57f
11:06 3 5 mph 1021.3mb 53f 58f
11:00 5 6 mph 1021.2mb 53f 58f
10:54 5 6 mph 1021.3mb 53f 57f
10:48 5 6 mph 1021.4mb 53f 57f
10:36 5 7 mph 1021.4mb 53f 56f
10:30 5 6 mph 1021.3mb 53f 56f
10:24 6 7 mph 1021.3mb 53f 56f
10:18 6 7 mph 1021.3mb 53f 56f
10:12 6 7 mph 1021.3mb 53f 55f
10:06 3 5 mph 1021.4mb 53f 56f
10:00 3 6 mph 1021.3mb 53f 56f
9:54 5 6 mph 1021.3mb 53f 56f
9:36 2 3 mph 1021.7mb 52f 56f
9:30 2 3 mph 1021.6mb 52f 56f
9:24  -  1 mph 1021.6mb 52f 57f
9:18  -  2 mph 1021.6mb 52f 57f
9:12 2 3 mph 1021.5mb 52f 56f
9:06  -  1 mph 1021.6mb 52f 56f
9:00 1 3 mph 1021.5mb 52f 55f
8:54 2 3 mph 1021.5mb 52f 55f
8:48 2 5 mph 1021.4mb 52f 55f
8:36 2 2 mph 1021.4mb 52f 55f
8:30 2 3 mph 1021.3mb 52f 55f
8:24 2 5 mph 1021.4mb 52f 54f
8:18 5 6 mph 1021.3mb 52f 54f
8:12 3 5 mph 1021.4mb 52f 54f
8:06 2 3 mph 1021.3mb 52f 54f
8:00 3 3 mph 1021.3mb 52f 54f
7:54 2 5 mph 1021.4mb 52f 54f
7:48 1 2 mph 1021.2mb 52f 54f
7:36  -  1 mph 1021mb 52f 55f
7:30  -  1 mph 1021.2mb 52f 55f
7:24  -  1 mph 1021.2mb 52f 54f
7:18  -  1 mph 1021mb 52f 53f
7:12  -  2 mph 1021mb 52f 53f
7:06 2 3 mph 1020.9mb 52f 52f
7:00  -  2 mph 1020.9mb 52f 52f
6:54 1 2 mph 1020.9mb 52f 52f
6:36  -  2 mph 1021.1mb 52f 52f
6:30 1 2 mph 1021mb 52f 52f
6:24  -  1 mph 1021mb 52f 51f
6:18  -  0 mph 1021mb 52f 51f
6:12  -  0 mph 1020.9mb 52f 51f
6:06  -  1 mph 1021mb 52f 52f
6:00  -  1 mph 1021.1mb 52f 52f
5:54  -  1 mph 1021mb 52f 52f
5:48  -  0 mph 1021.2mb 52f 52f
5:36  -  1 mph 1021.1mb 52f 52f
5:30  -  1 mph 1021.1mb 52f 52f
5:24  -  1 mph 1021mb 52f 52f
5:18  -  2 mph 1021mb 52f 52f
5:12  -  2 mph 1020.9mb 52f 52f
5:06  -  2 mph 1020.8mb 52f 52f
5:00  -  1 mph 1020.8mb 52f 52f
4:54 2 3 mph 1020.7mb 52f 52f
4:48 2 3 mph 1020.7mb 52f 52f
4:36 1 2 mph 1020.8mb 52f 52f
4:30 1 3 mph 1020.8mb 52f 52f
4:24  -  2 mph 1020.8mb 52f 52f
4:18  -  1 mph 1020.9mb 52f 52f
4:12  -  0 mph 1021mb 52f 51f
4:06  -  0 mph 1021.1mb 52f 51f
4:00  -  2 mph 1021.2mb 52f 51f
3:54  -  1 mph 1021.2mb 52f 51f
3:48  -  1 mph 1021.1mb 52f 51f
3:36  -  2 mph 1021.1mb 52f 52f
3:30  -  1 mph 1021mb 52f 52f
3:24 1 2 mph 1021mb 52f 53f
3:18 2 3 mph 1021mb 52f 53f
3:12 1 2 mph 1021.1mb 52f 52f
3:06 2 2 mph 1021.1mb 52f 53f
3:00 2 5 mph 1021.1mb 52f 53f
2:54 1 2 mph 1021.1mb 52f 53f
2:48  -  2 mph 1021.2mb 52f 52f
2:36 1 2 mph 1021.2mb 52f 53f
2:30 1 2 mph 1021.2mb 52f 52f
2:24  -  0 mph 1021mb 52f 52f
2:18  -  1 mph 1021.2mb 52f 52f
2:12 1 1 mph 1021.2mb 52f 52f
2:06  -  1 mph 1021.2mb 52f 52f
2:00  -  2 mph 1021.2mb 52f 52f
1:54 1 3 mph 1021.2mb 52f 52f
1:48 1 2 mph 1021.2mb 52f 52f
1:36  -  1 mph 1021.3mb 52f 52f
1:30  -  1 mph 1021.3mb 52f 52f
1:24  -  2 mph 1021.2mb 52f 53f
1:18 1 2 mph 1021.3mb 52f 53f
1:12  -  1 mph 1021.4mb 52f 53f
1:06 1 2 mph 1021.3mb 52f 53f
1:00 2 3 mph 1021.4mb 52f 53f
12:54 2 2 mph 1021.5mb 52f 53f
12:48 2 3 mph 1021.5mb 52f 53f
12:36  -  1 mph 1021.3mb 52f 53f
12:30  -  2 mph 1021.3mb 52f 53f
12:24 1 3 mph 1021.3mb 52f 53f
12:18 2 5 mph 1021.4mb 52f 53f
12:12 2 3 mph 1021.4mb 52f 53f
12:06  -  2 mph 1021.4mb 52f 53f
12:00 1 2 mph 1021.4mb 52f 53f
sam. 08/19 11:54  -  0 mph 1021.4mb 52f 53f
11:48  -  0 mph 1021.3mb 52f 53f
11:36  -  1 mph 1021.2mb 52f 53f
11:30 1 2 mph 1021.2mb 52f 53f
11:24 2 3 mph 1021.3mb 52f 53f
11:18  -  2 mph 1021.2mb 52f 54f
11:12 2 3 mph 1021.2mb 53f 54f
11:06 1 2 mph 1021.3mb 53f 54f
11:00 2 2 mph 1021.3mb 53f 54f
10:54 2 2 mph 1021.3mb 53f 54f
10:48 2 3 mph 1021.3mb 53f 54f
9:54 1 2 mph 1021.3mb 53f 55f
9:48  -  2 mph 1021.2mb 53f 55f
9:36  -  2 mph 1021.3mb 53f 55f
9:30 2 3 mph 1021.3mb 53f 55f
9:24 3 5 mph 1021.3mb 53f 55f
9:18  -  3 mph 1021.3mb 53f 55f
9:12 2 5 mph 1021.3mb 53f 56f
9:06 3 5 mph 1021.3mb 53f 55f
9:00 1 5 mph 1021.4mb 53f 55f
8:54 2 3 mph 1021.4mb 53f 55f
8:48 3 5 mph 1021.3mb 52f 55f
8:36 5 6 mph 1021.3mb 52f 57f
8:30 5 6 mph 1021.3mb 52f 57f
8:24 5 5 mph 1021.3mb 52f 56f
8:18 3 5 mph 1021.3mb 52f 56f
8:12 2 5 mph 1021.3mb 52f 57f
8:06 5 8 mph 1021.2mb 52f 58f
8:00 6 9 mph 1021.2mb 52f 58f
7:54 8 9 mph 1021.2mb 52f 58f
7:48 8 9 mph 1021.2mb 52f 58f
7:36 3 7 mph 1021.3mb 52f 58f
7:30 6 8 mph 1021.3mb 52f 58f
7:24 6 7 mph 1021.3mb 52f 58f
7:18 7 8 mph 1021.2mb 52f 59f
7:12 8 8 mph 1021.2mb 52f 59f
7:06 8 9 mph 1021.3mb 52f 59f
7:00 9 10 mph 1021.3mb 52f 59f
6:54 9 10 mph 1021.3mb 52f 60f
6:48 9 10 mph 1021.3mb 52f 60f
6:36 7 8 mph 1021.3mb 52f 61f
6:30 7 8 mph 1021.4mb 52f 61f
6:24 6 7 mph 1021.5mb 52f 61f
6:18 8 9 mph 1021.5mb 52f 61f
6:12 9 10 mph 1021.5mb 52f 61f
6:06 6 8 mph 1021.5mb 52f 62f
6:00 8 9 mph 1021.5mb 52f 63f
5:54 7 9 mph 1021.6mb 52f 62f
5:48 6 10 mph 1021.6mb 52f 62f
5:36 7 8 mph 1021.8mb 52f 62f
5:30 7 10 mph 1021.8mb 52f 62f
5:24 9 10 mph 1021.9mb 52f 63f
5:18 10 13 mph 1021.9mb 52f 63f
5:12 11 13 mph 1021.8mb 52f 63f
5:06 10 14 mph 1021.9mb 52f 64f
5:00 10 13 mph 1021.9mb 52f 64f
4:54 11 13 mph 1021.9mb 52f 65f
4:36 8 10 mph 1022mb 52f 66f
4:30 8 9 mph 1022mb 52f 66f
4:24 6 8 mph 1022mb 52f 65f
4:18 5 8 mph 1022.1mb 52f 64f
4:12 1 6 mph 1022.1mb 52f 64f
4:06 1 5 mph 1022.2mb 52f 64f
4:00  -  2 mph 1022.2mb 52f 64f
3:54 1 1 mph 1022.3mb 52f 65f
3:48  -  2 mph 1022.3mb 52f 65f
3:36  -  3 mph 1022.4mb 52f 64f
3:30 2 3 mph 1022.4mb 52f 63f
3:24 2 3 mph 1022.5mb 52f 63f
3:18 1 3 mph 1022.5mb 52f 64f
3:12  -  2 mph 1022.6mb 52f 64f
3:06  -  3 mph 1022.6mb 52f 63f
3:00 3 5 mph 1022.6mb 52f 62f
2:54 2 3 mph 1022.7mb 52f 63f
2:48  -  1 mph 1022.7mb 52f 65f
2:36 1 2 mph 1022.7mb 52f 66f
2:30  -  2 mph 1022.7mb 52f 67f
2:24  -  2 mph 1022.7mb 52f 65f
2:18 1 2 mph 1022.8mb 52f 65f
2:12  -  1 mph 1022.8mb 52f 65f
2:06  -  1 mph 1022.9mb 52f 66f
2:00  -  1 mph 1022.9mb 52f 64f
1:54 1 2 mph 1023mb 52f 64f
1:48 3 5 mph 1023mb 52f 64f
1:36 2 5 mph 1023.1mb 52f 63f
1:30 2 3 mph 1023.1mb 52f 63f
1:24 1 3 mph 1023.1mb 52f 63f
1:18 2 5 mph 1023.1mb 52f 63f
1:12 5 6 mph 1023.1mb 52f 63f
1:06 6 8 mph 1023.2mb 52f 62f
1:00 7 8 mph 1023.2mb 52f 62f
12:54 6 7 mph 1023.2mb 52f 62f
12:48 6 8 mph 1023.2mb 52f 62f
12:36 7 8 mph 1023.2mb 53f 61f
12:30 7 10 mph 1023.2mb 53f 61f
12:24 5 8 mph 1023.2mb 53f 62f
12:18  -  2 mph 1023.1mb 53f 63f
12:12  -  3 mph 1023.2mb 53f 62f
12:06 3 5 mph 1023.2mb 53f 61f
12:00 3 5 mph 1023.2mb 53f 61f
11:54 3 5 mph 1023.2mb 53f 60f
11:48 3 5 mph 1023.2mb 53f 61f
11:36 3 5 mph 1023.2mb 53f 61f
11:30 3 3 mph 1023.3mb 53f 62f
11:24 3 5 mph 1023.3mb 53f 60f
11:18 3 6 mph 1023.3mb 53f 60f
11:12 3 5 mph 1023.3mb 53f 60f
11:06 3 6 mph 1023.3mb 53f 60f
11:00 3 5 mph 1023.3mb 53f 60f
10:54 3 5 mph 1023.3mb 53f 60f
10:48 3 6 mph 1023.3mb 53f 59f
10:36 2 5 mph 1023.3mb 53f 58f
10:30 2 5 mph 1023.3mb 53f 58f
10:24 2 5 mph 1023.3mb 53f 58f
10:18 2 3 mph 1023.3mb 53f 58f
10:12 2 5 mph 1023.3mb 53f 58f
10:06 3 5 mph 1023.2mb 53f 57f
10:00 2 3 mph 1023.2mb 53f 58f
9:54 2 2 mph 1023.1mb 53f 59f
9:48 1 2 mph 1023.1mb 53f 59f
9:36 3 5 mph 1023mb 53f 58f
9:30 1 2 mph 1023mb 53f 61f
9:24  -  1 mph 1023mb 53f 60f
9:18  -  2 mph 1023mb 53f 59f
9:12  -  2 mph 1023mb 53f 59f
9:06  -  1 mph 1023mb 53f 59f
9:00 1 2 mph 1023mb 53f 58f
8:54  -  2 mph 1023mb 53f 58f
8:48 2 5 mph 1023mb 53f 56f
8:36 1 2 mph 1022.8mb 53f 57f
8:30 2 3 mph 1022.8mb 53f 56f
8:24 1 2 mph 1022.9mb 53f 57f
8:18 2 3 mph 1022.8mb 53f 56f
8:12 2 3 mph 1022.9mb 53f 56f
8:06 3 3 mph 1022.7mb 53f 56f
8:00 2 2 mph 1022.6mb 53f 56f
7:54  -  1 mph 1022.6mb 53f 57f
7:48  -  0 mph 1022.6mb 53f 57f
7:36  -  1 mph 1022.5mb 53f 56f
7:30  -  1 mph 1022.5mb 53f 55f
7:24  -  1 mph 1022.4mb 53f 55f
7:18  -  2 mph 1022.4mb 53f 55f
7:12  -  0 mph 1022.3mb 53f 54f
7:06  -  0 mph 1022.3mb 53f 54f
7:00  -  1 mph 1022.2mb 53f 53f
6:54  -  2 mph 1022.2mb 53f 53f
6:48 1 2 mph 1022.2mb 53f 53f
6:36 1 2 mph 1022.1mb 53f 53f
6:30  -  1 mph 1022mb 53f 53f
6:24  -  1 mph 1021.9mb 53f 53f
6:18  -  1 mph 1022mb 53f 53f
6:12  -  1 mph 1022mb 53f 53f
6:06  -  1 mph 1021.9mb 53f 53f
6:00  -  1 mph 1021.9mb 53f 53f
5:54  -  0 mph 1021.9mb 53f 53f
5:48  -  1 mph 1021.8mb 53f 53f
5:36  -  0 mph 1021.8mb 53f 53f
5:30  -  2 mph 1021.8mb 53f 53f
5:24  -  1 mph 1021.7mb 53f 53f
5:18  -  2 mph 1021.6mb 53f 53f
5:12 1 2 mph 1021.6mb 53f 53f
5:06  -  2 mph 1021.6mb 53f 53f
5:00  -  1 mph 1021.6mb 53f 53f
4:54  -  0 mph 1021.5mb 53f 53f
4:48  -  1 mph 1021.5mb 53f 53f
4:36  -  1 mph 1021.5mb 53f 52f
4:30  -  1 mph 1021.4mb 53f 52f
4:24 1 1 mph 1021.4mb 53f 52f
4:18  -  1 mph 1021.4mb 53f 52f
4:12  -  1 mph 1021.5mb 53f 52f
4:06  -  1 mph 1021.4mb 53f 52f
4:00  -  1 mph 1021.4mb 53f 51f
3:54 1 2 mph 1021.3mb 53f 51f
3:48 1 1 mph 1021.3mb 53f 52f
3:36  -  1 mph 1021.2mb 53f 53f
3:30 1 1 mph 1021.2mb 53f 52f
3:24  -  2 mph 1021.2mb 53f 52f
3:18  -  0 mph 1021.2mb 53f 53f
3:12  -  1 mph 1021.1mb 53f 53f
3:06  -  1 mph 1021mb 53f 53f
3:00  -  1 mph 1021mb 53f 53f
2:54  -  1 mph 1021mb 53f 53f
2:48  -  1 mph 1021.1mb 53f 53f